Time;durP1;ratioP1;P1;durP2;ratioP2;P2;SDS_P1;SDS_P2;PMS_P1;PMS_P2;Temp;Humidity;BMP_temperature;BMP_pressure;BME280_temperature;BME280_humidity;BME280_pressure;Samples;Min_cycle;Max_cycle;Signal;HPM_P1;HPM_P2
2022/03/19 00:01:46;;;;;;;56.00;17.63;;;6.90;99.90;;;;;;5035340;28;20044;-77
2022/03/19 00:04:11;;;;;;;63.60;21.55;;;6.70;99.90;;;;;;5036369;28;20017;-79
2022/03/19 00:06:39;;;;;;;90.38;29.55;;;6.70;99.90;;;;;;5036412;28;20331;-79
2022/03/19 00:09:07;;;;;;;53.75;19.05;;;6.60;99.90;;;;;;5036630;28;20061;-78
2022/03/19 00:11:33;;;;;;;58.15;18.98;;;6.50;99.90;;;;;;5034956;28;20033;-79
2022/03/19 00:13:59;;;;;;;57.40;19.52;;;6.50;99.90;;;;;;5017533;28;20021;-79
2022/03/19 00:16:25;;;;;;;47.42;16.27;;;6.40;99.90;;;;;;5036034;28;20374;-79
2022/03/19 00:18:50;;;;;;;46.90;14.15;;;6.40;99.90;;;;;;5018180;28;20025;-78
2022/03/19 00:21:16;;;;;;;44.33;15.10;;;6.40;99.90;;;;;;5034911;28;20034;-78
2022/03/19 00:23:42;;;;;;;49.85;16.33;;;6.40;99.90;;;;;;5035046;28;20102;-78
2022/03/19 00:26:08;;;;;;;59.30;17.25;;;6.40;99.90;;;;;;5037849;28;20028;-78
2022/03/19 00:28:36;;;;;;;77.07;24.25;;;6.40;99.90;;;;;;5017043;28;20300;-78
2022/03/19 00:31:03;;;;;;;69.60;20.25;;;6.30;99.90;;;;;;5033572;28;20386;-78
2022/03/19 00:33:28;;;;;;;46.08;13.95;;;6.30;99.90;;;;;;5017601;28;20061;-79
2022/03/19 00:35:54;;;;;;;47.20;14.35;;;6.30;99.90;;;;;;5034664;28;20040;-78
2022/03/19 00:38:19;;;;;;;47.97;17.02;;;6.60;99.90;;;;;;5033763;28;20077;-78
2022/03/19 00:40:46;;;;;;;50.80;18.20;;;6.30;99.90;;;;;;5033946;28;20029;-78
2022/03/19 00:43:12;;;;;;;52.72;17.90;;;6.00;99.90;;;;;;5016481;28;20033;-78
2022/03/19 00:45:37;;;;;;;45.58;17.42;;;6.20;99.90;;;;;;5035984;28;20057;-79
2022/03/19 00:48:03;;;;;;;49.22;13.75;;;6.10;99.90;;;;;;5034676;28;20470;-77
2022/03/19 00:50:29;;;;;;;43.03;12.60;;;6.00;99.90;;;;;;5017966;28;20451;-78
2022/03/19 00:52:54;;;;;;;37.25;10.77;;;5.90;99.90;;;;;;5034525;28;20113;-78
2022/03/19 00:55:20;;;;;;;33.80;10.15;;;5.80;99.90;;;;;;5034295;28;20037;-78
2022/03/19 00:57:47;;;;;;;35.33;9.82;;;5.80;99.90;;;;;;5034468;28;20068;-79
2022/03/19 01:00:15;;;;;;;38.20;10.23;;;5.70;99.90;;;;;;5034208;28;20026;-77
2022/03/19 01:02:42;;;;;;;34.88;9.98;;;5.60;99.90;;;;;;5033045;28;20017;-78
2022/03/19 01:05:08;;;;;;;37.72;9.68;;;5.60;99.90;;;;;;5036692;28;20104;-79
2022/03/19 01:07:47;;;;;;;39.97;9.77;;;5.50;99.90;;;;;;5037012;28;20022;-78
2022/03/19 01:10:15;;;;;;;33.33;9.52;;;5.40;99.90;;;;;;5038521;28;20228;-78
2022/03/19 01:12:40;;;;;;;28.42;9.35;;;5.40;99.90;;;;;;5040692;28;20029;-79
2022/03/19 01:15:06;;;;;;;34.97;10.40;;;5.40;99.90;;;;;;5022180;28;20342;-77
2022/03/19 01:17:32;;;;;;;32.97;9.95;;;5.30;99.90;;;;;;5019065;28;20072;-77
2022/03/19 01:20:01;;;;;;;34.20;8.93;;;5.30;99.90;;;;;;5054410;28;20017;-81
2022/03/19 01:22:28;;;;;;;35.28;9.18;;;5.30;99.90;;;;;;5059402;28;20100;-79
2022/03/19 01:24:54;;;;;;;30.40;9.70;;;5.40;99.90;;;;;;5059489;28;20021;-80
2022/03/19 01:27:20;;;;;;;33.83;9.48;;;5.40;99.90;;;;;;5041809;28;20025;-80
2022/03/19 01:29:45;;;;;;;31.33;9.18;;;5.40;99.90;;;;;;5058775;28;20063;-80
2022/03/19 01:32:11;;;;;;;27.88;9.27;;;5.40;99.90;;;;;;5040762;28;20018;-80
2022/03/19 01:34:37;;;;;;;29.73;9.60;;;5.40;99.90;;;;;;5052037;28;20029;-78
2022/03/19 01:37:03;;;;;;;25.80;9.35;;;5.40;99.90;;;;;;5038990;28;20069;-77
2022/03/19 01:39:28;;;;;;;31.42;9.52;;;5.40;99.90;;;;;;5038471;28;20036;-78
2022/03/19 01:41:54;;;;;;;38.00;10.70;;;5.40;99.90;;;;;;5020114;28;20541;-78
2022/03/19 01:44:21;;;;;;;38.53;10.10;;;5.40;99.90;;;;;;5035379;28;20108;-78
2022/03/19 01:47:16;;;;;;;23.30;8.43;;;5.40;99.90;;;;;;5035065;28;20033;-78
2022/03/19 01:49:41;;;;;;;29.48;8.77;;;5.40;99.90;;;;;;5013445;28;20037;-77
2022/03/19 01:52:07;;;;;;;32.58;9.63;;;5.40;99.90;;;;;;5016774;28;20032;-77
2022/03/19 01:54:36;;;;;;;35.17;8.80;;;5.40;99.90;;;;;;5034689;28;20040;-77
2022/03/19 01:57:02;;;;;;;27.98;8.45;;;5.30;99.90;;;;;;5019011;28;20026;-78
2022/03/19 01:59:32;;;;;;;24.67;8.75;;;5.30;99.90;;;;;;5040163;28;20080;-80
2022/03/19 02:01:58;;;;;;;25.73;8.20;;;5.30;99.90;;;;;;5038234;28;20021;-79
2022/03/19 02:04:24;;;;;;;26.70;9.40;;;5.30;99.90;;;;;;5041527;28;20022;-80
2022/03/19 02:06:50;;;;;;;33.90;9.73;;;5.30;99.90;;;;;;5022644;28;20048;-78
2022/03/19 02:09:15;;;;;;;37.70;8.10;;;5.40;99.90;;;;;;5057280;22;20045;-73
2022/03/19 02:11:41;;;;;;;30.70;8.32;;;5.30;99.90;;;;;;5032860;28;20099;-72
2022/03/19 02:14:07;;;;;;;33.40;8.95;;;5.30;99.90;;;;;;5033794;28;20033;-73
2022/03/19 02:16:32;;;;;;;28.70;7.57;;;5.30;99.90;;;;;;5035470;28;20021;-74
2022/03/19 02:18:59;;;;;;;36.17;8.68;;;5.30;99.90;;;;;;5036817;28;20108;-73
2022/03/19 02:21:25;;;;;;;31.38;7.35;;;5.30;99.90;;;;;;5035643;28;20026;-74
2022/03/19 02:26:46;;;;;;;28.77;7.28;;;5.40;99.90;;;;;;5037482;28;20072;-73
2022/03/19 02:29:12;;;;;;;32.85;6.45;;;5.40;99.90;;;;;;5038563;28;20022;-74
2022/03/19 02:31:44;;;;;;;45.35;8.88;;;5.40;99.90;;;;;;5038002;28;20367;-75
2022/03/19 02:34:09;;;;;;;34.67;8.80;;;5.40;99.90;;;;;;5037650;28;20049;-74
2022/03/19 02:36:36;;;;;;;31.13;7.07;;;5.40;99.90;;;;;;5037672;28;20426;-74
2022/03/19 02:39:13;;;;;;;26.95;7.13;;;5.50;99.90;;;;;;5036078;28;20048;-74
2022/03/19 02:41:43;;;;;;;25.02;6.72;;;5.50;99.90;;;;;;5036186;28;20053;-74
2022/03/19 02:44:09;;;;;;;30.05;6.93;;;5.50;99.90;;;;;;5033910;28;20021;-74
2022/03/19 02:46:43;;;;;;;26.85;6.53;;;5.50;99.90;;;;;;5025958;28;20503;-74
2022/03/19 02:49:09;;;;;;;39.67;6.68;;;5.50;99.90;;;;;;5013829;28;20026;-73
2022/03/19 02:51:39;;;;;;;28.85;6.53;;;5.60;99.90;;;;;;5015176;28;20047;-73
2022/03/19 02:54:09;;;;;;;36.88;6.80;;;5.50;99.90;;;;;;5016089;28;20064;-73
2022/03/19 02:56:38;;;;;;;33.30;6.82;;;5.60;99.90;;;;;;5011811;28;20382;-74
2022/03/19 02:59:08;;;;;;;31.65;6.47;;;5.50;99.90;;;;;;5016468;28;20045;-73
2022/03/19 03:01:34;;;;;;;27.00;6.45;;;5.50;99.90;;;;;;5031705;28;20013;-73
2022/03/19 03:04:00;;;;;;;30.65;6.32;;;5.50;99.90;;;;;;5031459;28;20091;-74
2022/03/19 03:06:25;;;;;;;27.30;6.28;;;5.50;99.90;;;;;;5031262;28;20045;-73
2022/03/19 03:08:51;;;;;;;30.38;6.25;;;5.50;99.90;;;;;;5031286;28;20112;-73
2022/03/19 03:11:17;;;;;;;30.45;5.93;;;5.40;99.90;;;;;;5031506;28;20044;-74
2022/03/19 03:13:44;;;;;;;30.50;6.95;;;5.40;99.90;;;;;;5031407;28;20493;-72
2022/03/19 03:16:10;;;;;;;27.17;6.07;;;5.40;99.90;;;;;;5031149;28;20018;-73
2022/03/19 03:18:35;;;;;;;22.70;5.80;;;5.40;99.90;;;;;;5031292;28;20022;-73
2022/03/19 03:21:01;;;;;;;26.42;5.65;;;5.40;99.90;;;;;;5031100;28;20018;-74
2022/03/19 03:23:26;;;;;;;26.00;5.50;;;5.40;99.90;;;;;;5031357;28;20398;-72
2022/03/19 03:25:52;;;;;;;26.00;6.75;;;5.40;99.90;;;;;;5031022;28;20030;-72
2022/03/19 03:28:18;;;;;;;25.25;5.85;;;5.40;99.90;;;;;;5031303;28;20108;-73
2022/03/19 03:30:44;;;;;;;29.55;6.03;;;5.30;99.90;;;;;;5031176;28;20064;-73
2022/03/19 03:33:10;;;;;;;35.42;6.32;;;5.30;99.90;;;;;;5013490;28;20500;-72
2022/03/19 03:35:35;;;;;;;23.52;5.45;;;5.30;99.90;;;;;;5030308;28;20025;-73
2022/03/19 03:38:01;;;;;;;26.95;6.07;;;5.20;99.90;;;;;;5033697;28;20056;-73
2022/03/19 03:40:26;;;;;;;26.25;5.93;;;5.20;99.90;;;;;;5015362;28;20025;-73
2022/03/19 03:42:54;;;;;;;28.48;6.22;;;5.20;99.90;;;;;;5031378;28;20047;-74
2022/03/19 03:45:20;;;;;;;24.52;6.15;;;5.30;99.90;;;;;;5031028;28;20033;-74
2022/03/19 03:47:46;;;;;;;21.80;5.20;;;5.10;99.90;;;;;;5031594;28;20063;-73
2022/03/19 03:50:12;;;;;;;31.25;5.57;;;5.10;99.90;;;;;;5013561;28;20026;-73
2022/03/19 03:52:38;;;;;;;31.88;6.18;;;5.10;99.90;;;;;;5032733;28;20082;-73
2022/03/19 03:55:06;;;;;;;17.83;5.05;;;5.10;99.90;;;;;;5033463;28;20021;-74
2022/03/19 03:57:34;;;;;;;35.88;6.60;;;5.00;99.90;;;;;;5030745;28;20030;-74
2022/03/19 04:00:01;;;;;;;27.75;6.90;;;5.00;99.90;;;;;;5031162;28;20228;-77
2022/03/19 04:02:26;;;;;;;33.00;6.40;;;4.90;99.90;;;;;;5013179;28;20200;-73
2022/03/19 04:04:52;;;;;;;23.48;5.03;;;4.90;99.90;;;;;;5033639;28;20433;-73
2022/03/19 04:07:18;;;;;;;29.92;5.35;;;4.80;99.90;;;;;;5038418;28;20033;-76
2022/03/19 04:09:43;;;;;;;26.00;5.97;;;4.80;99.90;;;;;;5030567;28;20116;-75
2022/03/19 04:12:09;;;;;;;33.13;7.22;;;4.70;99.90;;;;;;5030865;28;20029;-72
2022/03/19 04:14:35;;;;;;;25.95;6.65;;;4.70;99.90;;;;;;5019502;28;20102;-73
2022/03/19 04:17:02;;;;;;;27.58;6.88;;;4.70;99.90;;;;;;5030476;28;20443;-72
2022/03/19 04:19:27;;;;;;;31.17;6.60;;;4.70;99.90;;;;;;5013097;28;20406;-73
2022/03/19 04:21:53;;;;;;;30.38;6.43;;;4.60;99.90;;;;;;5030478;28;20018;-73
2022/03/19 04:24:18;;;;;;;30.65;7.72;;;4.50;99.90;;;;;;5030502;28;20462;-73
2022/03/19 04:26:44;;;;;;;32.53;7.57;;;4.50;99.90;;;;;;5030233;28;20041;-72
2022/03/19 04:29:09;;;;;;;29.83;6.72;;;4.50;99.90;;;;;;5030451;28;20510;-72
2022/03/19 04:31:35;;;;;;;23.85;6.18;;;4.50;99.90;;;;;;5030403;28;20394;-72
2022/03/19 04:34:00;;;;;;;26.73;6.97;;;4.50;99.90;;;;;;5030481;28;20025;-73
2022/03/19 04:36:59;;;;;;;31.35;7.07;;;4.40;99.90;;;;;;5030734;28;20030;-73
2022/03/19 04:39:17;;;;;;;32.30;10.45;;;4.40;99.90;;;;;;5026348;28;20076;-74
2022/03/19 04:41:43;;;;;;;33.38;7.53;;;4.40;99.90;;;;;;5031499;28;20045;-74
2022/03/19 04:44:09;;;;;;;26.45;8.07;;;4.40;99.90;;;;;;5031492;28;20084;-74
2022/03/19 04:46:35;;;;;;;36.38;7.07;;;4.40;99.90;;;;;;5033060;28;20056;-74
2022/03/19 04:49:02;;;;;;;32.58;6.57;;;4.40;99.90;;;;;;5035328;28;20033;-74
2022/03/19 04:51:37;;;;;;;36.47;7.13;;;4.30;99.90;;;;;;5035186;28;20108;-74
2022/03/19 04:54:04;;;;;;;28.02;6.32;;;4.30;99.90;;;;;;5035212;28;20335;-74
2022/03/19 04:56:30;;;;;;;22.92;5.88;;;4.30;99.90;;;;;;5017411;28;20425;-75
2022/03/19 04:58:58;;;;;;;18.73;5.60;;;4.30;99.90;;;;;;5035003;28;20022;-74
2022/03/19 05:01:28;;;;;;;31.08;6.65;;;4.20;99.90;;;;;;5034800;28;20028;-74
2022/03/19 05:03:54;;;;;;;27.63;7.22;;;4.20;99.90;;;;;;5035086;28;20021;-73
2022/03/19 05:06:21;;;;;;;31.83;6.30;;;4.10;99.90;;;;;;5035253;28;20390;-74
2022/03/19 05:08:47;;;;;;;25.95;6.45;;;4.10;99.90;;;;;;5035605;28;20029;-74
2022/03/19 05:11:12;;;;;;;32.60;6.43;;;4.10;99.90;;;;;;5035947;28;20036;-74
2022/03/19 05:13:47;;;;;;;34.22;7.63;;;4.10;99.90;;;;;;5036604;28;20021;-74
2022/03/19 05:16:13;;;;;;;31.63;7.03;;;4.10;99.90;;;;;;5036521;28;20041;-74
2022/03/19 05:18:39;;;;;;;29.42;6.30;;;4.10;99.90;;;;;;5035861;28;20030;-74
2022/03/19 05:21:05;;;;;;;34.47;7.53;;;4.00;99.90;;;;;;5036084;28;20026;-73
2022/03/19 05:23:31;;;;;;;29.63;6.70;;;4.00;99.90;;;;;;5035982;28;20053;-74
2022/03/19 05:25:58;;;;;;;27.95;6.68;;;4.00;99.90;;;;;;5035414;28;20047;-74
2022/03/19 05:28:24;;;;;;;30.80;8.25;;;4.00;99.90;;;;;;5035897;28;20022;-75
2022/03/19 05:30:50;;;;;;;25.52;8.10;;;4.00;99.90;;;;;;5036062;28;20502;-74
2022/03/19 05:33:16;;;;;;;39.53;10.25;;;4.00;99.90;;;;;;5036365;28;20056;-74
2022/03/19 05:35:42;;;;;;;34.13;7.07;;;4.00;99.90;;;;;;5035502;28;20021;-72
2022/03/19 05:38:08;;;;;;;22.70;6.10;;;4.00;99.90;;;;;;5036527;28;20018;-74
2022/03/19 05:40:34;;;;;;;33.30;6.20;;;4.00;99.90;;;;;;5035407;28;20030;-73
2022/03/19 05:43:00;;;;;;;30.38;6.13;;;4.00;99.90;;;;;;5035443;28;20025;-73
2022/03/19 05:45:26;;;;;;;22.77;6.10;;;3.90;99.90;;;;;;5035663;28;20084;-76
2022/03/19 05:47:52;;;;;;;26.83;6.03;;;3.90;99.90;;;;;;5035354;28;20026;-76
2022/03/19 05:50:18;;;;;;;31.60;6.75;;;3.90;99.90;;;;;;5036103;28;20037;-74
2022/03/19 05:52:47;;;;;;;28.50;6.50;;;3.90;99.90;;;;;;5038997;28;20021;-74
2022/03/19 05:55:14;;;;;;;25.33;6.82;;;3.90;99.90;;;;;;5039332;28;20025;-73
2022/03/19 05:57:40;;;;;;;26.80;7.10;;;3.90;99.90;;;;;;5042971;28;20071;-73
2022/03/19 06:00:08;;;;;;;31.45;7.32;;;3.90;99.90;;;;;;5044972;28;20031;-74
2022/03/19 06:02:39;;;;;;;29.75;7.07;;;3.90;99.90;;;;;;5043948;28;20021;-73
2022/03/19 06:05:05;;;;;;;34.60;6.20;;;3.90;99.90;;;;;;5040884;28;20022;-73
2022/03/19 06:07:30;;;;;;;28.23;6.63;;;3.90;99.90;;;;;;5040511;28;20033;-73
2022/03/19 06:09:56;;;;;;;26.73;5.93;;;3.90;99.90;;;;;;5034408;28;20041;-74
2022/03/19 06:12:22;;;;;;;33.53;9.50;;;4.00;99.90;;;;;;5033849;28;20386;-74
2022/03/19 06:14:53;;;;;;;24.13;6.13;;;3.90;99.90;;;;;;5034103;28;20029;-74
2022/03/19 06:17:19;;;;;;;27.55;6.38;;;3.90;99.90;;;;;;5016010;28;20117;-74
2022/03/19 06:19:44;;;;;;;37.50;6.70;;;3.90;99.90;;;;;;5033601;28;20022;-76
2022/03/19 06:22:10;;;;;;;20.58;5.82;;;3.90;99.90;;;;;;5033756;28;20363;-75
2022/03/19 06:24:35;;;;;;;26.63;6.07;;;4.00;99.90;;;;;;5016090;28;20045;-76
2022/03/19 06:27:01;;;;;;;28.17;6.30;;;4.00;99.90;;;;;;5034098;28;20497;-76
2022/03/19 06:29:27;;;;;;;26.85;7.00;;;4.00;99.90;;;;;;5034336;28;20064;-74
2022/03/19 06:31:52;;;;;;;22.02;7.13;;;4.10;99.90;;;;;;5016199;28;20018;-75
2022/03/19 06:34:18;;;;;;;39.40;9.10;;;4.20;99.90;;;;;;5035027;28;20432;-75
2022/03/19 06:39:27;;;;;;;23.52;7.07;;;4.30;99.90;;;;;;5033209;28;20080;-73
2022/03/19 06:41:53;;;;;;;37.38;10.27;;;4.40;99.90;;;;;;5033251;28;20033;-73
2022/03/19 06:44:18;;;;;;;34.33;10.23;;;4.50;99.90;;;;;;5033173;28;20032;-73
2022/03/19 06:46:44;;;;;;;36.35;9.27;;;4.50;99.90;;;;;;5033215;28;20044;-75
2022/03/19 06:49:09;;;;;;;32.65;9.15;;;4.60;99.90;;;;;;5033507;28;20022;-74
2022/03/19 06:51:36;;;;;;;21.73;6.82;;;4.60;99.90;;;;;;5015267;28;20032;-74
2022/03/19 06:54:03;;;;;;;27.40;6.60;;;4.80;99.90;;;;;;5032914;28;20075;-74
2022/03/19 06:56:28;;;;;;;30.63;6.82;;;4.80;99.90;;;;;;5032433;28;20017;-74
2022/03/19 06:58:54;;;;;;;31.35;5.60;;;4.90;99.90;;;;;;5032580;28;20035;-74
2022/03/19 07:01:19;;;;;;;26.40;5.80;;;5.10;99.90;;;;;;5032827;28;20391;-73
2022/03/19 07:03:46;;;;;;;39.78;6.97;;;5.10;99.90;;;;;;5032743;28;20029;-73
2022/03/19 07:06:12;;;;;;;24.35;5.47;;;5.20;99.90;;;;;;5032573;28;20459;-74
2022/03/19 07:08:38;;;;;;;21.10;5.20;;;5.40;99.90;;;;;;5032298;28;20043;-73
2022/03/19 07:11:04;;;;;;;23.55;5.15;;;5.50;99.90;;;;;;5032852;28;20426;-73
2022/03/19 07:13:31;;;;;;;29.95;5.93;;;5.60;99.90;;;;;;5034802;28;20447;-74
2022/03/19 07:15:57;;;;;;;22.65;5.47;;;5.70;99.90;;;;;;5033190;28;20036;-73
2022/03/19 07:18:23;;;;;;;30.58;5.57;;;5.90;99.90;;;;;;5014771;28;20112;-73
2022/03/19 07:20:50;;;;;;;35.33;5.90;;;6.00;99.90;;;;;;5032552;28;20478;-73
2022/03/19 07:23:16;;;;;;;30.35;6.38;;;6.00;99.90;;;;;;5032504;28;20030;-73
2022/03/19 07:25:43;;;;;;;24.38;4.45;;;6.20;99.90;;;;;;5032597;28;20037;-74
2022/03/19 07:28:11;;;;;;;36.50;6.20;;;6.20;99.90;;;;;;5032815;28;20031;-76
2022/03/19 07:30:36;;;;;;;23.80;4.43;;;6.40;99.90;;;;;;5031410;28;20017;-74
2022/03/19 07:33:03;;;;;;;25.13;4.53;;;6.50;99.90;;;;;;5032740;28;20184;-74
2022/03/19 07:35:29;;;;;;;29.90;4.90;;;6.50;99.90;;;;;;5032402;28;20079;-73
2022/03/19 07:37:57;;;;;;;24.83;4.32;;;6.60;99.90;;;;;;5032455;28;20033;-73
2022/03/19 07:43:11;;;;;;;22.80;4.38;;;6.70;99.90;;;;;;5032275;28;20497;-73
2022/03/19 07:45:39;;;;;;;31.17;5.28;;;6.80;99.90;;;;;;5032301;28;20105;-73
2022/03/19 07:48:05;;;;;;;28.77;5.68;;;6.90;99.90;;;;;;5033161;28;20087;-74
2022/03/19 07:50:31;;;;;;;33.42;4.80;;;7.00;99.90;;;;;;5015002;28;20394;-74
2022/03/19 07:52:57;;;;;;;27.45;5.00;;;7.10;99.90;;;;;;5032221;28;20048;-73
2022/03/19 07:55:24;;;;;;;28.60;4.88;;;7.20;99.90;;;;;;5031901;28;20474;-74
2022/03/19 07:57:50;;;;;;;30.00;5.05;;;7.30;99.90;;;;;;5032544;28;20025;-73
2022/03/19 08:00:16;;;;;;;30.30;5.35;;;7.40;99.90;;;;;;5033307;28;20021;-74
2022/03/19 08:02:42;;;;;;;24.73;5.63;;;7.40;99.90;;;;;;5016694;28;20028;-73
2022/03/19 08:05:09;;;;;;;24.67;5.20;;;7.50;99.90;;;;;;5020056;28;20029;-79
2022/03/19 08:07:37;;;;;;;29.73;4.85;;;7.60;99.90;;;;;;5032020;28;20030;-74
2022/03/19 08:10:06;;;;;;;20.77;4.28;;;7.60;99.90;;;;;;5032647;28;20025;-77
2022/03/19 08:12:32;;;;;;;30.23;4.88;;;7.60;99.90;;;;;;5033816;28;20026;-73
2022/03/19 08:14:59;;;;;;;20.67;4.57;;;7.70;99.90;;;;;;5031840;28;20028;-73
2022/03/19 08:17:26;;;;;;;14.82;3.95;;;7.80;99.90;;;;;;5031578;28;20446;-77
2022/03/19 08:19:51;;;;;;;24.65;4.82;;;7.80;99.90;;;;;;5031966;28;20025;-72
2022/03/19 08:22:17;;;;;;;24.08;4.30;;;7.90;99.90;;;;;;5034590;28;20030;-71
2022/03/19 08:24:42;;;;;;;26.05;4.55;;;7.90;99.90;;;;;;5035704;28;20028;-72
2022/03/19 08:27:09;;;;;;;21.55;3.92;;;8.00;99.90;;;;;;5036271;28;20029;-74
2022/03/19 08:29:35;;;;;;;22.42;3.90;;;8.10;99.90;;;;;;5019317;28;20028;-73
2022/03/19 08:32:01;;;;;;;21.25;4.10;;;8.30;99.90;;;;;;5036358;28;20021;-73
2022/03/19 08:34:26;;;;;;;22.50;4.72;;;8.30;99.90;;;;;;5018632;28;20540;-72
2022/03/19 08:36:52;;;;;;;20.85;3.83;;;8.40;99.90;;;;;;5035305;28;20028;-72
2022/03/19 08:42:02;;;;;;;24.10;3.72;;;;;;;;;;5036035;28;20036;-75
2022/03/19 08:44:28;;;;;;;32.95;4.35;;;9.00;99.90;;;;;;5035918;28;20025;-73
2022/03/19 08:46:53;;;;;;;18.08;3.55;;;10.80;99.90;;;;;;5017151;28;20431;-73
2022/03/19 08:49:20;;;;;;;24.65;4.05;;;11.80;99.90;;;;;;5037955;28;20037;-77
2022/03/19 08:51:45;;;;;;;18.85;3.20;;;12.70;99.90;;;;;;5034782;28;20471;-72
2022/03/19 08:54:16;;;;;;;24.58;4.07;;;13.20;99.90;;;;;;5018518;28;20032;-75
2022/03/19 08:56:43;;;;;;;18.33;4.03;;;13.80;99.90;;;;;;5019270;28;20026;-72
2022/03/19 08:59:10;;;;;;;20.27;3.58;;;14.40;99.90;;;;;;5035377;28;20018;-73
2022/03/19 09:01:37;;;;;;;21.63;3.95;;;15.20;99.90;;;;;;5035615;28;20025;-73
2022/03/19 09:04:03;;;;;;;24.17;3.50;;;15.60;99.90;;;;;;5034964;28;20030;-72
2022/03/19 09:06:29;;;;;;;26.60;3.83;;;15.80;99.90;;;;;;5034869;28;20025;-73
2022/03/19 09:08:54;;;;;;;18.45;3.78;;;16.10;99.90;;;;;;5034895;28;20029;-72
2022/03/19 09:11:23;;;;;;;18.77;3.50;;;16.70;99.30;;;;;;5035001;28;20044;-74
2022/03/19 09:13:50;;;;;;;14.98;3.35;;;16.80;97.50;;;;;;5017784;28;20018;-71
2022/03/19 09:16:17;;;;;;;19.70;4.63;;;16.90;95.90;;;;;;5037241;28;20052;-73
2022/03/19 09:18:43;;;;;;;15.85;3.00;;;17.00;95.20;;;;;;5016848;28;20044;-74
2022/03/19 09:21:09;;;;;;;20.23;5.28;;;17.30;94.10;;;;;;5034154;28;20380;-73
2022/03/19 09:23:34;;;;;;;18.08;3.70;;;17.80;93.30;;;;;;5016181;28;20113;-73
2022/03/19 09:26:00;;;;;;;21.58;5.28;;;18.40;91.50;;;;;;5032995;28;20087;-73
2022/03/19 09:28:26;;;;;;;14.40;3.80;;;18.70;90.00;;;;;;5015840;28;20546;-73
2022/03/19 09:30:51;;;;;;;43.80;14.35;;;19.00;87.80;;;;;;5034125;28;20029;-72
2022/03/19 09:33:17;;;;;;;14.88;4.05;;;19.60;84.80;;;;;;5034322;28;20033;-72
2022/03/19 09:35:45;;;;;;;19.70;3.97;;;20.30;80.20;;;;;;5033613;28;20025;-74
2022/03/19 09:38:11;;;;;;;18.17;3.78;;;19.90;77.00;;;;;;5034679;28;20108;-72
2022/03/19 09:40:38;;;;;;;24.35;6.60;;;19.90;75.80;;;;;;5035056;28;20057;-73
2022/03/19 09:43:03;;;;;;;13.38;2.85;;;19.80;75.70;;;;;;5036527;28;20064;-72
2022/03/19 09:45:29;;;;;;;17.50;3.47;;;19.60;74.40;;;;;;5034020;28;20646;-72
2022/03/19 09:47:55;;;;;;;16.88;3.53;;;19.50;74.70;;;;;;5033425;28;20474;-72
2022/03/19 09:50:22;;;;;;;12.82;3.42;;;19.80;74.20;;;;;;5033143;28;20100;-72
2022/03/19 09:52:51;;;;;;;13.38;3.25;;;19.80;72.90;;;;;;5033139;28;20029;-73
2022/03/19 09:55:18;;;;;;;19.25;5.30;;;19.60;72.60;;;;;;5033992;28;20032;-73
2022/03/19 09:57:44;;;;;;;13.95;2.70;;;19.90;73.40;;;;;;5033558;28;20029;-73
2022/03/19 10:00:11;;;;;;;11.80;3.35;;;20.60;69.70;;;;;;5033020;28;20071;-73
2022/03/19 10:02:55;;;;;;;12.43;2.78;;;20.90;68.30;;;;;;5034983;28;20035;-72
2022/03/19 10:10:50;;;;;;;11.23;3.03;;;20.60;66.30;;;;;;5032726;28;20148;-73
2022/03/19 10:13:16;;;;;;;8.85;2.65;;;21.20;66.00;;;;;;5032544;28;20080;-72
2022/03/19 10:15:42;;;;;;;10.00;2.60;;;21.80;64.00;;;;;;5032126;28;20032;-72
2022/03/19 10:18:09;;;;;;;8.45;2.22;;;21.40;61.10;;;;;;5033529;28;20463;-73
2022/03/19 10:20:36;;;;;;;11.35;2.70;;;20.80;62.50;;;;;;5033385;28;20371;-75
2022/03/19 10:23:02;;;;;;;10.27;2.70;;;20.30;63.40;;;;;;5033409;28;20017;-74
2022/03/19 10:25:28;;;;;;;10.57;2.72;;;19.80;64.50;;;;;;5033161;28;20030;-74
2022/03/19 10:28:00;;;;;;;9.93;2.45;;;19.10;65.60;;;;;;5033493;28;20104;-72
2022/03/19 10:30:33;;;;;;;13.13;2.60;;;18.90;66.90;;;;;;5035583;28;20025;-72
2022/03/19 10:32:59;;;;;;;11.27;2.65;;;18.80;67.10;;;;;;5015670;28;20026;-75
2022/03/19 10:35:25;;;;;;;8.93;2.13;;;19.00;67.20;;;;;;5033113;28;20124;-73
2022/03/19 10:37:51;;;;;;;11.18;2.78;;;19.20;65.80;;;;;;5033121;28;20013;-74
2022/03/19 10:40:16;;;;;;;12.93;3.03;;;19.40;64.50;;;;;;5033230;28;20442;-72
2022/03/19 10:42:42;;;;;;;11.43;2.42;;;19.80;64.80;;;;;;5033118;28;20097;-75
2022/03/19 10:45:10;;;;;;;10.07;2.65;;;20.10;63.20;;;;;;5032715;28;20422;-73
2022/03/19 10:47:41;;;;;;;8.60;2.20;;;20.50;61.20;;;;;;5034003;28;20094;-75
2022/03/19 10:50:07;;;;;;;8.30;1.92;;;20.70;59.10;;;;;;5033745;28;20032;-73
2022/03/19 10:52:34;;;;;;;13.70;2.22;;;20.60;58.80;;;;;;5015153;28;20021;-74
2022/03/19 10:55:04;;;;;;;13.98;2.50;;;20.70;59.30;;;;;;5033236;28;20065;-74
2022/03/19 10:57:30;;;;;;;12.15;2.17;;;21.20;58.50;;;;;;5015093;28;20239;-73
2022/03/19 10:59:56;;;;;;;9.95;2.28;;;21.50;57.10;;;;;;5016222;28;20426;-74
2022/03/19 11:02:25;;;;;;;7.85;2.60;;;21.00;57.30;;;;;;5015574;28;20033;-73
2022/03/19 11:04:51;;;;;;;7.45;2.20;;;20.90;57.60;;;;;;5032551;28;20017;-73
2022/03/19 11:07:20;;;;;;;8.27;2.42;;;21.30;57.30;;;;;;5032370;28;20252;-74
2022/03/19 11:09:46;;;;;;;10.10;2.45;;;20.90;56.50;;;;;;5015052;28;20486;-73
2022/03/19 11:12:17;;;;;;;10.00;3.47;;;20.20;57.50;;;;;;5033108;28;20497;-73
2022/03/19 11:14:44;;;;;;;9.23;3.05;;;20.40;58.50;;;;;;5033204;28;20040;-72
2022/03/19 11:17:23;;;;;;;7.75;2.17;;;20.20;58.30;;;;;;5033917;28;20626;-72
2022/03/19 11:19:50;;;;;;;7.65;1.95;;;20.20;57.40;;;;;;5016358;28;20112;-74
2022/03/19 11:22:16;;;;;;;8.05;1.90;;;20.80;57.40;;;;;;5035631;28;20032;-73
2022/03/19 11:24:54;;;;;;;7.15;1.98;;;21.50;56.00;;;;;;5032235;28;20021;-72
2022/03/19 11:27:22;;;;;;;7.38;2.20;;;21.80;54.70;;;;;;5032101;28;20106;-73
2022/03/19 11:29:47;;;;;;;6.68;1.98;;;22.00;54.70;;;;;;5032194;28;20032;-73
2022/03/19 11:32:32;;;;;;;7.03;2.13;;;22.40;53.30;;;;;;5032466;28;20030;-72
2022/03/19 11:34:59;;;;;;;9.35;2.63;;;22.90;52.50;;;;;;5032080;28;20150;-73
2022/03/19 11:38:04;;;;;;;9.63;1.85;;;23.50;51.70;;;;;;5032260;28;20030;-74
2022/03/19 11:40:35;;;;;;;9.85;1.83;;;23.90;50.30;;;;;;5028151;28;20478;-74
2022/03/19 11:43:07;;;;;;;7.28;1.98;;;23.90;50.00;;;;;;5032127;28;20026;-73
2022/03/19 11:45:53;;;;;;;8.48;2.17;;;24.10;49.60;;;;;;5031480;28;20026;-75
2022/03/19 11:48:41;;;;;;;6.97;2.20;;;24.00;49.00;;;;;;5031757;28;20036;-72
2022/03/19 11:51:17;;;;;;;7.85;2.08;;;23.50;49.00;;;;;;5031879;28;20052;-75
2022/03/19 11:53:58;;;;;;;9.75;1.70;;;23.10;49.70;;;;;;5031546;28;20480;-74
2022/03/19 11:56:48;;;;;;;7.80;1.80;;;22.80;50.60;;;;;;5031058;28;20477;-73
2022/03/19 11:59:45;;;;;;;11.02;2.25;;;23.10;50.70;;;;;;5032406;28;20066;-75
2022/03/19 12:02:14;;;;;;;6.13;1.80;;;24.20;49.60;;;;;;5015584;28;20089;-72
2022/03/19 12:04:48;;;;;;;6.85;2.05;;;24.60;48.40;;;;;;5032063;28;20109;-74
2022/03/19 12:07:47;;;;;;;6.10;1.67;;;24.50;47.90;;;;;;5032181;28;20028;-73
2022/03/19 12:10:18;;;;;;;12.88;2.15;;;24.60;47.10;;;;;;5030757;28;20109;-72
2022/03/19 12:12:45;;;;;;;6.22;2.13;;;24.40;47.30;;;;;;5035045;28;20021;-76
2022/03/19 12:15:30;;;;;;;6.13;1.67;;;24.10;47.60;;;;;;5014042;28;20029;-72
2022/03/19 12:18:21;;;;;;;6.03;1.80;;;23.80;47.80;;;;;;5013965;28;20041;-72
2022/03/19 12:20:47;;;;;;;7.80;1.92;;;23.50;48.10;;;;;;5033939;28;20022;-72
2022/03/19 12:23:13;;;;;;;7.75;2.05;;;23.80;48.60;;;;;;5033823;28;20069;-73
2022/03/19 12:25:43;;;;;;;5.18;1.70;;;23.30;49.10;;;;;;5031139;28;20098;-71
2022/03/19 12:28:15;;;;;;;7.95;2.00;;;23.30;49.10;;;;;;5031715;28;20152;-72
2022/03/19 12:30:41;;;;;;;8.02;2.38;;;23.20;49.10;;;;;;5032351;28;20060;-72
2022/03/19 12:33:07;;;;;;;8.70;2.53;;;22.90;49.70;;;;;;5033337;28;20101;-73
2022/03/19 12:35:32;;;;;;;7.10;2.60;;;22.90;49.80;;;;;;5031696;28;20022;-73
2022/03/19 12:37:58;;;;;;;8.68;2.47;;;22.30;50.40;;;;;;5031544;28;20717;-71
2022/03/19 12:41:23;;;;;;;10.30;2.95;;;21.60;51.90;;;;;;5032315;28;20434;-73
2022/03/19 12:43:14;;;;;;;9.30;2.45;;;21.00;53.20;;;;;;5032360;28;20022;-73
2022/03/19 12:45:45;;;;;;;14.82;2.45;;;20.60;54.30;;;;;;5033030;28;20108;-72
2022/03/19 12:48:12;;;;;;;8.57;2.00;;;21.10;54.30;;;;;;5035303;28;20087;-73
2022/03/19 12:50:39;;;;;;;11.68;3.20;;;21.70;54.20;;;;;;5033947;28;20049;-74
2022/03/19 12:53:05;;;;;;;8.85;3.03;;;21.60;53.40;;;;;;5035336;28;20030;-72
2022/03/19 12:55:31;;;;;;;7.80;2.28;;;21.70;53.60;;;;;;5035022;28;20088;-72
2022/03/19 12:57:57;;;;;;;10.25;4.80;;;21.30;53.50;;;;;;5017468;28;20022;-73
2022/03/19 13:00:26;;;;;;;11.05;3.63;;;20.90;55.20;;;;;;5038513;28;20029;-73
2022/03/19 13:02:54;;;;;;;7.70;2.22;;;20.60;55.10;;;;;;5038325;28;20025;-72
2022/03/19 13:05:23;;;;;;;7.05;2.20;;;20.80;55.00;;;;;;5041291;28;20022;-70